sensor_id;sensor_type;location;lat;lon;timestamp;P1;durP1;ratioP1;P2;durP2;ratioP2
75408;SDS011;63979;55.644;37.734;2023-06-22T00:00:50;15.15;;;7.38;;
75408;SDS011;63979;55.644;37.734;2023-06-22T00:05:52;19.45;;;7.45;;
75408;SDS011;63979;55.644;37.734;2023-06-22T00:10:53;14.48;;;7.97;;
75408;SDS011;63979;55.644;37.734;2023-06-22T00:15:54;20.60;;;8.43;;
75408;SDS011;63979;55.644;37.734;2023-06-22T00:20:55;18.65;;;8.05;;
75408;SDS011;63979;55.644;37.734;2023-06-22T00:25:58;21.08;;;8.68;;
75408;SDS011;63979;55.644;37.734;2023-06-22T00:30:59;19.58;;;10.32;;
75408;SDS011;63979;55.644;37.734;2023-06-22T00:36:01;22.17;;;9.35;;
75408;SDS011;63979;55.644;37.734;2023-06-22T00:41:04;19.02;;;10.80;;
75408;SDS011;63979;55.644;37.734;2023-06-22T00:46:05;29.38;;;12.27;;
75408;SDS011;63979;55.644;37.734;2023-06-22T00:51:06;27.95;;;11.77;;
75408;SDS011;63979;55.644;37.734;2023-06-22T00:56:08;20.75;;;10.40;;
75408;SDS011;63979;55.644;37.734;2023-06-22T01:01:13;23.17;;;11.35;;
75408;SDS011;63979;55.644;37.734;2023-06-22T01:06:15;37.78;;;15.25;;
75408;SDS011;63979;55.644;37.734;2023-06-22T01:11:32;31.27;;;16.45;;
75408;SDS011;63979;55.644;37.734;2023-06-22T01:16:46;36.20;;;18.10;;
75408;SDS011;63979;55.644;37.734;2023-06-22T01:21:49;33.88;;;22.63;;
75408;SDS011;63979;55.644;37.734;2023-06-22T01:32:11;39.38;;;24.33;;
75408;SDS011;63979;55.644;37.734;2023-06-22T01:42:15;39.00;;;22.88;;
75408;SDS011;63979;55.644;37.734;2023-06-22T01:47:17;44.05;;;22.65;;
75408;SDS011;63979;55.644;37.734;2023-06-22T01:52:18;38.28;;;21.17;;
75408;SDS011;63979;55.644;37.734;2023-06-22T01:57:21;42.47;;;20.92;;
75408;SDS011;63979;55.644;37.734;2023-06-22T02:02:22;45.72;;;19.88;;
75408;SDS011;63979;55.644;37.734;2023-06-22T02:07:32;34.15;;;19.65;;
75408;SDS011;63979;55.644;37.734;2023-06-22T02:12:38;34.20;;;17.88;;
75408;SDS011;63979;55.644;37.734;2023-06-22T02:17:42;32.45;;;18.75;;
75408;SDS011;63979;55.644;37.734;2023-06-22T02:22:47;30.27;;;17.67;;
75408;SDS011;63979;55.644;37.734;2023-06-22T02:27:48;39.38;;;16.70;;
75408;SDS011;63979;55.644;37.734;2023-06-22T02:32:49;27.08;;;16.52;;
75408;SDS011;63979;55.644;37.734;2023-06-22T02:37:59;26.90;;;17.25;;
75408;SDS011;63979;55.644;37.734;2023-06-22T02:43:01;34.72;;;20.00;;
75408;SDS011;63979;55.644;37.734;2023-06-22T02:48:05;37.28;;;19.70;;
75408;SDS011;63979;55.644;37.734;2023-06-22T02:53:05;46.13;;;21.73;;
75408;SDS011;63979;55.644;37.734;2023-06-22T02:58:06;29.25;;;19.25;;
75408;SDS011;63979;55.644;37.734;2023-06-22T03:03:07;31.17;;;16.80;;
75408;SDS011;63979;55.644;37.734;2023-06-22T03:08:08;28.95;;;17.77;;
75408;SDS011;63979;55.644;37.734;2023-06-22T03:13:09;26.50;;;14.95;;
75408;SDS011;63979;55.644;37.734;2023-06-22T03:18:10;22.92;;;14.27;;
75408;SDS011;63979;55.644;37.734;2023-06-22T03:23:11;21.52;;;14.02;;
75408;SDS011;63979;55.644;37.734;2023-06-22T03:28:12;23.50;;;12.80;;
75408;SDS011;63979;55.644;37.734;2023-06-22T03:33:13;21.40;;;13.55;;
75408;SDS011;63979;55.644;37.734;2023-06-22T03:38:14;15.07;;;8.68;;
75408;SDS011;63979;55.644;37.734;2023-06-22T03:43:15;12.35;;;8.98;;
75408;SDS011;63979;55.644;37.734;2023-06-22T03:48:16;14.13;;;8.55;;
75408;SDS011;63979;55.644;37.734;2023-06-22T03:53:17;18.85;;;10.07;;
75408;SDS011;63979;55.644;37.734;2023-06-22T04:03:20;16.00;;;9.23;;
75408;SDS011;63979;55.644;37.734;2023-06-22T04:08:21;13.52;;;9.63;;
75408;SDS011;63979;55.644;37.734;2023-06-22T04:13:22;16.42;;;9.00;;
75408;SDS011;63979;55.644;37.734;2023-06-22T04:18:23;17.58;;;8.25;;
75408;SDS011;63979;55.644;37.734;2023-06-22T04:23:24;14.95;;;8.40;;
75408;SDS011;63979;55.644;37.734;2023-06-22T04:28:25;11.30;;;6.57;;
75408;SDS011;63979;55.644;37.734;2023-06-22T04:33:26;10.57;;;5.95;;
75408;SDS011;63979;55.644;37.734;2023-06-22T04:38:27;6.50;;;4.07;;
75408;SDS011;63979;55.644;37.734;2023-06-22T04:43:29;6.53;;;4.60;;
75408;SDS011;63979;55.644;37.734;2023-06-22T04:48:30;9.77;;;5.07;;
75408;SDS011;63979;55.644;37.734;2023-06-22T04:53:34;4.88;;;3.55;;
75408;SDS011;63979;55.644;37.734;2023-06-22T04:58:35;9.18;;;4.57;;
75408;SDS011;63979;55.644;37.734;2023-06-22T05:08:37;4.43;;;2.75;;
75408;SDS011;63979;55.644;37.734;2023-06-22T05:18:39;7.63;;;3.10;;
75408;SDS011;63979;55.644;37.734;2023-06-22T05:23:40;4.88;;;2.97;;
75408;SDS011;63979;55.644;37.734;2023-06-22T05:28:41;9.10;;;2.33;;
75408;SDS011;63979;55.644;37.734;2023-06-22T05:33:43;12.07;;;3.45;;
75408;SDS011;63979;55.644;37.734;2023-06-22T05:38:45;5.68;;;3.00;;
75408;SDS011;63979;55.644;37.734;2023-06-22T05:43:46;3.78;;;2.50;;
75408;SDS011;63979;55.644;37.734;2023-06-22T05:48:48;3.72;;;2.80;;
75408;SDS011;63979;55.644;37.734;2023-06-22T05:53:48;5.05;;;3.55;;
75408;SDS011;63979;55.644;37.734;2023-06-22T05:58:50;6.45;;;3.17;;
75408;SDS011;63979;55.644;37.734;2023-06-22T06:03:52;5.60;;;3.13;;
75408;SDS011;63979;55.644;37.734;2023-06-22T06:08:53;5.82;;;3.35;;
75408;SDS011;63979;55.644;37.734;2023-06-22T06:13:54;4.65;;;3.75;;
75408;SDS011;63979;55.644;37.734;2023-06-22T06:18:55;3.97;;;3.22;;
75408;SDS011;63979;55.644;37.734;2023-06-22T06:23:56;5.10;;;3.30;;
75408;SDS011;63979;55.644;37.734;2023-06-22T06:28:59;4.47;;;3.40;;
75408;SDS011;63979;55.644;37.734;2023-06-22T06:34:00;3.75;;;3.22;;
75408;SDS011;63979;55.644;37.734;2023-06-22T06:39:01;4.70;;;3.08;;
75408;SDS011;63979;55.644;37.734;2023-06-22T06:44:03;7.57;;;3.42;;
75408;SDS011;63979;55.644;37.734;2023-06-22T06:49:05;5.47;;;3.40;;
75408;SDS011;63979;55.644;37.734;2023-06-22T06:54:06;4.53;;;3.22;;
75408;SDS011;63979;55.644;37.734;2023-06-22T06:59:07;4.70;;;3.17;;
75408;SDS011;63979;55.644;37.734;2023-06-22T07:04:08;3.20;;;2.90;;
75408;SDS011;63979;55.644;37.734;2023-06-22T07:09:09;3.95;;;3.08;;
75408;SDS011;63979;55.644;37.734;2023-06-22T07:14:10;4.35;;;3.38;;
75408;SDS011;63979;55.644;37.734;2023-06-22T07:19:12;3.47;;;3.10;;
75408;SDS011;63979;55.644;37.734;2023-06-22T07:24:15;4.43;;;3.30;;
75408;SDS011;63979;55.644;37.734;2023-06-22T07:29:17;3.25;;;2.83;;
75408;SDS011;63979;55.644;37.734;2023-06-22T07:34:18;6.18;;;3.28;;
75408;SDS011;63979;55.644;37.734;2023-06-22T07:39:20;5.68;;;3.28;;
75408;SDS011;63979;55.644;37.734;2023-06-22T07:44:26;5.15;;;2.92;;
75408;SDS011;63979;55.644;37.734;2023-06-22T07:49:27;6.90;;;3.90;;
75408;SDS011;63979;55.644;37.734;2023-06-22T07:54:29;4.80;;;3.60;;
75408;SDS011;63979;55.644;37.734;2023-06-22T07:59:30;4.88;;;3.60;;
75408;SDS011;63979;55.644;37.734;2023-06-22T08:04:31;6.95;;;3.45;;
75408;SDS011;63979;55.644;37.734;2023-06-22T08:09:34;5.35;;;3.33;;
75408;SDS011;63979;55.644;37.734;2023-06-22T08:14:37;7.00;;;3.38;;
75408;SDS011;63979;55.644;37.734;2023-06-22T08:19:39;4.72;;;3.20;;
75408;SDS011;63979;55.644;37.734;2023-06-22T08:24:40;4.13;;;2.90;;
75408;SDS011;63979;55.644;37.734;2023-06-22T08:29:41;4.80;;;3.30;;
75408;SDS011;63979;55.644;37.734;2023-06-22T08:34:42;5.25;;;3.33;;
75408;SDS011;63979;55.644;37.734;2023-06-22T08:39:43;6.25;;;3.88;;
75408;SDS011;63979;55.644;37.734;2023-06-22T08:44:44;4.03;;;3.50;;
75408;SDS011;63979;55.644;37.734;2023-06-22T08:49:45;4.07;;;3.33;;
75408;SDS011;63979;55.644;37.734;2023-06-22T08:54:46;7.15;;;3.80;;
75408;SDS011;63979;55.644;37.734;2023-06-22T08:59:48;5.88;;;3.55;;
75408;SDS011;63979;55.644;37.734;2023-06-22T09:04:49;4.95;;;3.58;;
75408;SDS011;63979;55.644;37.734;2023-06-22T09:09:55;4.22;;;3.50;;
75408;SDS011;63979;55.644;37.734;2023-06-22T09:14:57;4.65;;;3.40;;
75408;SDS011;63979;55.644;37.734;2023-06-22T09:19:58;4.53;;;3.40;;
75408;SDS011;63979;55.644;37.734;2023-06-22T09:24:59;4.70;;;3.85;;
75408;SDS011;63979;55.644;37.734;2023-06-22T09:30:00;5.65;;;3.53;;
75408;SDS011;63979;55.644;37.734;2023-06-22T09:35:03;5.35;;;3.83;;
75408;SDS011;63979;55.644;37.734;2023-06-22T09:40:07;8.38;;;3.55;;
75408;SDS011;63979;55.644;37.734;2023-06-22T09:45:10;9.52;;;3.75;;
75408;SDS011;63979;55.644;37.734;2023-06-22T09:50:11;5.93;;;3.67;;
75408;SDS011;63979;55.644;37.734;2023-06-22T09:55:12;7.00;;;3.80;;
75408;SDS011;63979;55.644;37.734;2023-06-22T10:00:16;4.75;;;3.75;;
75408;SDS011;63979;55.644;37.734;2023-06-22T10:05:18;4.43;;;3.58;;
75408;SDS011;63979;55.644;37.734;2023-06-22T10:10:19;6.00;;;3.83;;
75408;SDS011;63979;55.644;37.734;2023-06-22T10:15:20;5.93;;;3.60;;
75408;SDS011;63979;55.644;37.734;2023-06-22T10:20:21;5.32;;;3.85;;
75408;SDS011;63979;55.644;37.734;2023-06-22T10:25:22;5.20;;;3.95;;
75408;SDS011;63979;55.644;37.734;2023-06-22T10:30:23;4.07;;;3.65;;
75408;SDS011;63979;55.644;37.734;2023-06-22T10:35:24;5.32;;;4.45;;
75408;SDS011;63979;55.644;37.734;2023-06-22T10:40:25;4.53;;;3.90;;
75408;SDS011;63979;55.644;37.734;2023-06-22T10:45:27;4.63;;;3.95;;
75408;SDS011;63979;55.644;37.734;2023-06-22T10:50:28;4.53;;;3.60;;
75408;SDS011;63979;55.644;37.734;2023-06-22T10:55:30;4.50;;;3.90;;
75408;SDS011;63979;55.644;37.734;2023-06-22T11:00:31;5.43;;;4.45;;
75408;SDS011;63979;55.644;37.734;2023-06-22T11:05:32;5.97;;;4.38;;
75408;SDS011;63979;55.644;37.734;2023-06-22T11:10:33;5.13;;;3.70;;
75408;SDS011;63979;55.644;37.734;2023-06-22T11:15:34;6.55;;;4.00;;
75408;SDS011;63979;55.644;37.734;2023-06-22T11:20:36;6.72;;;4.28;;
75408;SDS011;63979;55.644;37.734;2023-06-22T11:25:39;4.82;;;4.32;;
75408;SDS011;63979;55.644;37.734;2023-06-22T11:30:43;5.97;;;4.22;;
75408;SDS011;63979;55.644;37.734;2023-06-22T11:35:44;5.18;;;3.58;;
75408;SDS011;63979;55.644;37.734;2023-06-22T11:40:45;5.00;;;4.13;;
75408;SDS011;63979;55.644;37.734;2023-06-22T11:45:46;6.95;;;4.50;;
75408;SDS011;63979;55.644;37.734;2023-06-22T11:50:47;6.97;;;4.65;;
75408;SDS011;63979;55.644;37.734;2023-06-22T11:55:48;10.77;;;4.55;;
75408;SDS011;63979;55.644;37.734;2023-06-22T12:00:49;6.43;;;4.47;;
75408;SDS011;63979;55.644;37.734;2023-06-22T12:05:51;9.60;;;4.80;;
75408;SDS011;63979;55.644;37.734;2023-06-22T12:10:52;7.15;;;4.57;;
75408;SDS011;63979;55.644;37.734;2023-06-22T12:15:54;8.02;;;4.72;;
75408;SDS011;63979;55.644;37.734;2023-06-22T12:20:55;5.55;;;4.43;;
75408;SDS011;63979;55.644;37.734;2023-06-22T12:25:56;6.47;;;4.30;;
75408;SDS011;63979;55.644;37.734;2023-06-22T12:30:57;7.00;;;4.25;;
75408;SDS011;63979;55.644;37.734;2023-06-22T12:35:59;5.90;;;4.57;;
75408;SDS011;63979;55.644;37.734;2023-06-22T12:41:00;8.13;;;4.70;;
75408;SDS011;63979;55.644;37.734;2023-06-22T12:46:01;5.82;;;3.88;;
75408;SDS011;63979;55.644;37.734;2023-06-22T12:51:02;6.95;;;4.32;;
75408;SDS011;63979;55.644;37.734;2023-06-22T12:56:04;6.18;;;4.80;;
75408;SDS011;63979;55.644;37.734;2023-06-22T13:01:05;6.03;;;4.70;;
75408;SDS011;63979;55.644;37.734;2023-06-22T13:06:06;5.07;;;4.57;;
75408;SDS011;63979;55.644;37.734;2023-06-22T13:11:07;6.55;;;4.63;;
75408;SDS011;63979;55.644;37.734;2023-06-22T13:16:08;6.72;;;4.55;;
75408;SDS011;63979;55.644;37.734;2023-06-22T13:21:09;5.07;;;4.22;;
75408;SDS011;63979;55.644;37.734;2023-06-22T13:26:10;9.15;;;4.18;;
75408;SDS011;63979;55.644;37.734;2023-06-22T13:31:11;5.32;;;4.38;;
75408;SDS011;63979;55.644;37.734;2023-06-22T13:36:12;6.38;;;4.53;;
75408;SDS011;63979;55.644;37.734;2023-06-22T13:41:14;6.80;;;4.93;;
75408;SDS011;63979;55.644;37.734;2023-06-22T13:46:15;4.50;;;4.00;;
75408;SDS011;63979;55.644;37.734;2023-06-22T13:51:16;5.20;;;3.83;;
75408;SDS011;63979;55.644;37.734;2023-06-22T13:56:17;7.10;;;4.78;;
75408;SDS011;63979;55.644;37.734;2023-06-22T14:01:18;7.47;;;4.57;;
75408;SDS011;63979;55.644;37.734;2023-06-22T14:06:19;4.95;;;4.18;;
75408;SDS011;63979;55.644;37.734;2023-06-22T14:11:20;6.20;;;4.68;;
75408;SDS011;63979;55.644;37.734;2023-06-22T14:16:21;6.13;;;4.53;;
75408;SDS011;63979;55.644;37.734;2023-06-22T14:21:23;26.70;;;14.75;;
75408;SDS011;63979;55.644;37.734;2023-06-22T14:26:24;41.35;;;19.70;;
75408;SDS011;63979;55.644;37.734;2023-06-22T14:31:25;35.35;;;17.55;;
75408;SDS011;63979;55.644;37.734;2023-06-22T14:36:26;29.92;;;15.73;;
75408;SDS011;63979;55.644;37.734;2023-06-22T14:41:27;20.65;;;9.95;;
75408;SDS011;63979;55.644;37.734;2023-06-22T14:46:29;11.23;;;6.43;;
75408;SDS011;63979;55.644;37.734;2023-06-22T14:51:30;7.20;;;4.57;;
75408;SDS011;63979;55.644;37.734;2023-06-22T14:56:31;7.22;;;4.90;;
75408;SDS011;63979;55.644;37.734;2023-06-22T15:01:32;4.60;;;4.20;;
75408;SDS011;63979;55.644;37.734;2023-06-22T15:06:33;7.55;;;5.22;;
75408;SDS011;63979;55.644;37.734;2023-06-22T15:11:35;11.68;;;7.65;;
75408;SDS011;63979;55.644;37.734;2023-06-22T15:16:36;7.32;;;5.80;;
75408;SDS011;63979;55.644;37.734;2023-06-22T15:21:36;7.28;;;4.93;;
75408;SDS011;63979;55.644;37.734;2023-06-22T15:26:38;5.50;;;4.93;;
75408;SDS011;63979;55.644;37.734;2023-06-22T15:31:39;6.50;;;4.30;;
75408;SDS011;63979;55.644;37.734;2023-06-22T15:36:40;5.57;;;5.03;;
75408;SDS011;63979;55.644;37.734;2023-06-22T15:41:41;5.63;;;4.57;;
75408;SDS011;63979;55.644;37.734;2023-06-22T15:46:42;9.20;;;5.82;;
75408;SDS011;63979;55.644;37.734;2023-06-22T15:51:44;8.77;;;5.75;;
75408;SDS011;63979;55.644;37.734;2023-06-22T15:56:45;9.68;;;5.63;;
75408;SDS011;63979;55.644;37.734;2023-06-22T16:01:46;8.90;;;5.55;;
75408;SDS011;63979;55.644;37.734;2023-06-22T16:06:47;10.65;;;4.47;;
75408;SDS011;63979;55.644;37.734;2023-06-22T16:11:48;10.85;;;4.88;;
75408;SDS011;63979;55.644;37.734;2023-06-22T16:16:49;9.25;;;4.32;;
75408;SDS011;63979;55.644;37.734;2023-06-22T16:21:50;8.15;;;3.70;;
75408;SDS011;63979;55.644;37.734;2023-06-22T16:26:52;9.73;;;3.95;;
75408;SDS011;63979;55.644;37.734;2023-06-22T16:31:53;11.10;;;5.00;;
75408;SDS011;63979;55.644;37.734;2023-06-22T16:36:54;12.10;;;4.88;;
75408;SDS011;63979;55.644;37.734;2023-06-22T16:41:55;6.80;;;4.22;;
75408;SDS011;63979;55.644;37.734;2023-06-22T16:46:57;9.35;;;4.25;;
75408;SDS011;63979;55.644;37.734;2023-06-22T16:51:59;6.10;;;3.92;;
75408;SDS011;63979;55.644;37.734;2023-06-22T16:57:00;10.88;;;3.97;;
75408;SDS011;63979;55.644;37.734;2023-06-22T17:02:02;9.65;;;4.35;;
75408;SDS011;63979;55.644;37.734;2023-06-22T17:07:07;5.45;;;3.63;;
75408;SDS011;63979;55.644;37.734;2023-06-22T17:12:10;4.07;;;3.35;;
75408;SDS011;63979;55.644;37.734;2023-06-22T17:17:16;8.40;;;3.92;;
75408;SDS011;63979;55.644;37.734;2023-06-22T17:22:18;5.63;;;3.30;;
75408;SDS011;63979;55.644;37.734;2023-06-22T17:27:26;5.40;;;3.03;;
75408;SDS011;63979;55.644;37.734;2023-06-22T17:32:29;9.05;;;4.20;;
75408;SDS011;63979;55.644;37.734;2023-06-22T17:38:04;3.83;;;2.97;;
75408;SDS011;63979;55.644;37.734;2023-06-22T17:43:03;7.82;;;3.65;;
75408;SDS011;63979;55.644;37.734;2023-06-22T17:48:08;5.95;;;3.67;;
75408;SDS011;63979;55.644;37.734;2023-06-22T17:53:11;7.95;;;3.40;;
75408;SDS011;63979;55.644;37.734;2023-06-22T17:58:13;4.13;;;3.08;;
75408;SDS011;63979;55.644;37.734;2023-06-22T18:03:15;5.88;;;3.33;;
75408;SDS011;63979;55.644;37.734;2023-06-22T18:13:22;5.22;;;3.22;;
75408;SDS011;63979;55.644;37.734;2023-06-22T18:18:24;9.60;;;4.00;;
75408;SDS011;63979;55.644;37.734;2023-06-22T18:23:26;3.25;;;2.70;;
75408;SDS011;63979;55.644;37.734;2023-06-22T18:28:31;6.63;;;3.17;;
75408;SDS011;63979;55.644;37.734;2023-06-22T18:33:35;6.70;;;3.42;;
75408;SDS011;63979;55.644;37.734;2023-06-22T18:38:39;5.43;;;2.83;;
75408;SDS011;63979;55.644;37.734;2023-06-22T18:43:42;5.50;;;2.83;;
75408;SDS011;63979;55.644;37.734;2023-06-22T18:53:44;4.03;;;3.08;;
75408;SDS011;63979;55.644;37.734;2023-06-22T18:59:03;3.60;;;2.83;;
75408;SDS011;63979;55.644;37.734;2023-06-22T19:04:15;4.32;;;2.80;;
75408;SDS011;63979;55.644;37.734;2023-06-22T19:09:17;5.38;;;3.25;;
75408;SDS011;63979;55.644;37.734;2023-06-22T19:14:21;6.80;;;2.80;;
75408;SDS011;63979;55.644;37.734;2023-06-22T19:19:23;6.85;;;3.03;;
75408;SDS011;63979;55.644;37.734;2023-06-22T19:24:28;4.40;;;2.75;;
75408;SDS011;63979;55.644;37.734;2023-06-22T19:29:31;6.90;;;3.20;;
75408;SDS011;63979;55.644;37.734;2023-06-22T19:34:34;4.32;;;2.92;;
75408;SDS011;63979;55.644;37.734;2023-06-22T19:39:37;4.38;;;3.03;;
75408;SDS011;63979;55.644;37.734;2023-06-22T19:44:38;6.90;;;2.90;;
75408;SDS011;63979;55.644;37.734;2023-06-22T19:49:39;7.05;;;3.20;;
75408;SDS011;63979;55.644;37.734;2023-06-22T19:54:41;4.88;;;3.13;;
75408;SDS011;63979;55.644;37.734;2023-06-22T19:59:42;6.50;;;3.08;;
75408;SDS011;63979;55.644;37.734;2023-06-22T20:04:44;3.30;;;2.70;;
75408;SDS011;63979;55.644;37.734;2023-06-22T20:09:55;11.07;;;3.13;;
75408;SDS011;63979;55.644;37.734;2023-06-22T20:15:17;7.75;;;3.03;;
75408;SDS011;63979;55.644;37.734;2023-06-22T20:20:23;4.97;;;3.42;;
75408;SDS011;63979;55.644;37.734;2023-06-22T20:25:28;7.05;;;3.45;;
75408;SDS011;63979;55.644;37.734;2023-06-22T20:30:31;4.85;;;3.92;;
75408;SDS011;63979;55.644;37.734;2023-06-22T20:35:34;6.13;;;3.40;;
75408;SDS011;63979;55.644;37.734;2023-06-22T20:40:35;7.35;;;3.63;;
75408;SDS011;63979;55.644;37.734;2023-06-22T20:45:37;11.32;;;4.68;;
75408;SDS011;63979;55.644;37.734;2023-06-22T20:50:39;11.93;;;4.40;;
75408;SDS011;63979;55.644;37.734;2023-06-22T20:55:40;9.48;;;4.65;;
75408;SDS011;63979;55.644;37.734;2023-06-22T21:00:41;10.88;;;4.90;;
75408;SDS011;63979;55.644;37.734;2023-06-22T21:10:45;7.68;;;4.30;;
75408;SDS011;63979;55.644;37.734;2023-06-22T21:15:46;7.53;;;4.28;;
75408;SDS011;63979;55.644;37.734;2023-06-22T21:20:47;9.40;;;4.53;;
75408;SDS011;63979;55.644;37.734;2023-06-22T21:25:48;10.82;;;4.65;;
75408;SDS011;63979;55.644;37.734;2023-06-22T21:30:50;8.98;;;4.70;;
75408;SDS011;63979;55.644;37.734;2023-06-22T21:35:51;6.53;;;3.60;;
75408;SDS011;63979;55.644;37.734;2023-06-22T21:40:53;11.10;;;5.18;;
75408;SDS011;63979;55.644;37.734;2023-06-22T21:45:54;6.93;;;3.38;;
75408;SDS011;63979;55.644;37.734;2023-06-22T21:50:55;6.35;;;3.13;;
75408;SDS011;63979;55.644;37.734;2023-06-22T21:55:56;8.65;;;3.60;;
75408;SDS011;63979;55.644;37.734;2023-06-22T22:00:57;4.70;;;3.60;;
75408;SDS011;63979;55.644;37.734;2023-06-22T22:05:58;6.53;;;3.33;;
75408;SDS011;63979;55.644;37.734;2023-06-22T22:10:59;7.68;;;3.28;;
75408;SDS011;63979;55.644;37.734;2023-06-22T22:16:00;6.68;;;2.53;;
75408;SDS011;63979;55.644;37.734;2023-06-22T22:21:02;6.18;;;2.90;;
75408;SDS011;63979;55.644;37.734;2023-06-22T22:26:03;3.60;;;2.17;;
75408;SDS011;63979;55.644;37.734;2023-06-22T22:31:04;4.93;;;2.05;;
75408;SDS011;63979;55.644;37.734;2023-06-22T22:36:05;5.18;;;2.97;;
75408;SDS011;63979;55.644;37.734;2023-06-22T22:41:09;10.00;;;2.58;;
75408;SDS011;63979;55.644;37.734;2023-06-22T22:46:10;4.05;;;2.40;;
75408;SDS011;63979;55.644;37.734;2023-06-22T22:51:11;6.68;;;2.25;;
75408;SDS011;63979;55.644;37.734;2023-06-22T22:56:12;14.45;;;3.08;;
75408;SDS011;63979;55.644;37.734;2023-06-22T23:01:13;3.97;;;2.05;;
75408;SDS011;63979;55.644;37.734;2023-06-22T23:06:14;4.65;;;2.70;;
75408;SDS011;63979;55.644;37.734;2023-06-22T23:11:15;5.07;;;2.30;;
75408;SDS011;63979;55.644;37.734;2023-06-22T23:21:18;3.65;;;2.25;;
75408;SDS011;63979;55.644;37.734;2023-06-22T23:26:19;3.22;;;2.03;;
75408;SDS011;63979;55.644;37.734;2023-06-22T23:31:19;4.68;;;2.35;;
75408;SDS011;63979;55.644;37.734;2023-06-22T23:36:20;3.83;;;2.22;;
75408;SDS011;63979;55.644;37.734;2023-06-22T23:41:21;3.63;;;2.40;;
75408;SDS011;63979;55.644;37.734;2023-06-22T23:46:26;5.00;;;2.25;;
75408;SDS011;63979;55.644;37.734;2023-06-22T23:51:31;4.38;;;2.00;;
75408;SDS011;63979;55.644;37.734;2023-06-22T23:56:32;2.05;;;1.58;;
